Time;durP1;ratioP1;P1;durP2;ratioP2;P2;SDS_P1;SDS_P2;PMS_P1;PMS_P2;Temp;Humidity;BMP_temperature;BMP_pressure;BME280_temperature;BME280_humidity;BME280_pressure;Samples;Min_cycle;Max_cycle;Signal;HPM_P1;HPM_P2
2023/01/02 00:01:20;;;;;;;26.17;11.50;;;;;;;2.62;nan;-23889.16;5016894;28;20294;-68
2023/01/02 00:03:45;;;;;;;21.80;10.90;;;;;;;2.49;nan;-23885.44;5011465;28;20519;-67
2023/01/02 00:06:11;;;;;;;17.53;9.83;;;;;;;2.48;nan;-23885.16;5012076;28;20608;-68
2023/01/02 00:08:37;;;;;;;29.67;10.40;;;;;;;2.49;nan;-23885.44;5011727;28;20281;-68
2023/01/02 00:11:02;;;;;;;24.83;10.80;;;;;;;2.09;nan;-23874.31;5012695;28;20183;-68
2023/01/02 00:13:28;;;;;;;19.23;8.53;;;;;;;2.42;nan;-23883.44;5020822;28;20207;-68
2023/01/02 00:15:53;;;;;;;26.87;11.57;;;;;;;2.08;nan;-23874.03;5015630;28;20212;-68
2023/01/02 00:18:19;;;;;;;23.77;10.13;;;;;;;1.97;nan;-23870.88;5016463;28;20210;-68
2023/01/02 00:20:44;;;;;;;23.80;11.50;;;;;;;2.35;nan;-23881.47;5015588;28;20184;-68
2023/01/02 00:23:09;;;;;;;19.50;11.20;;;;;;;2.23;nan;-23878.31;5015906;28;20657;-68
2023/01/02 00:25:35;;;;;;;14.90;9.43;;;;;;;1.77;nan;-23865.16;5015449;28;20172;-69
2023/01/02 00:28:01;;;;;;;20.83;10.33;;;;;;;1.81;nan;-23866.16;5015606;28;20604;-69
2023/01/02 00:30:27;;;;;;;18.30;9.77;;;;;;;2.04;nan;-23872.88;5015463;28;20176;-68
2023/01/02 00:32:52;;;;;;;21.10;10.40;;;;;;;2.03;nan;-23872.59;5015653;28;20259;-68
2023/01/02 00:35:18;;;;;;;22.53;9.00;;;;;;;1.94;nan;-23869.88;5015273;28;20219;-69
2023/01/02 00:37:43;;;;;;;24.57;9.20;;;;;;;1.72;nan;-23863.88;5014289;28;20271;-69
2023/01/02 00:40:12;;;;;;;24.47;9.73;;;;;;;1.94;nan;-23869.88;5015452;28;20194;-68
2023/01/02 00:42:41;;;;;;;26.17;9.50;;;;;;;1.70;nan;-23863.16;5015218;28;20164;-69
2023/01/02 00:45:07;;;;;;;22.67;8.63;;;;;;;2.15;nan;-23876.03;5016192;28;20248;-68
2023/01/02 00:47:32;;;;;;;16.97;8.03;;;;;;;1.71;nan;-23863.47;5019345;28;20176;-69
2023/01/02 00:49:58;;;;;;;13.80;7.47;;;;;;;2.16;nan;-23876.16;5014818;28;20192;-69
2023/01/02 00:52:23;;;;;;;14.20;7.50;;;;;;;1.80;nan;-23865.88;5015445;28;20311;-69
2023/01/02 00:54:48;;;;;;;14.77;7.77;;;;;;;1.88;nan;-23868.16;5015178;28;20211;-69
2023/01/02 00:57:14;;;;;;;20.27;8.90;;;;;;;2.07;nan;-23873.59;5014805;28;20279;-68
2023/01/02 00:59:39;;;;;;;20.30;9.17;;;;;;;2.12;nan;-23875.03;5014871;28;20691;-69
2023/01/02 01:02:05;;;;;;;19.23;7.20;;;;;;;1.85;nan;-23867.31;5014634;28;20215;-69
2023/01/02 01:04:34;;;;;;;17.93;7.63;;;;;;;1.94;nan;-23870.03;5014249;28;20253;-69
2023/01/02 01:07:00;;;;;;;16.60;6.43;;;;;;;1.80;nan;-23865.88;5013589;28;20202;-68
2023/01/02 01:09:26;;;;;;;16.23;8.07;;;;;;;1.65;nan;-23861.75;5013638;28;20176;-69
2023/01/02 01:11:51;;;;;;;25.70;9.27;;;;;;;1.68;nan;-23862.75;5014072;28;20172;-69
2023/01/02 01:14:17;;;;;;;19.67;8.83;;;;;;;1.76;nan;-23865.03;5013440;28;20192;-68
2023/01/02 01:16:42;;;;;;;13.20;7.73;;;;;;;2.06;nan;-23873.31;5013545;28;20176;-69
2023/01/02 01:19:08;;;;;;;15.03;7.87;;;;;;;2.07;nan;-23873.75;5018505;28;20601;-69
2023/01/02 01:21:33;;;;;;;15.77;8.53;;;;;;;2.02;nan;-23872.16;5013099;28;20172;-69
2023/01/02 01:23:59;;;;;;;22.47;8.73;;;;;;;1.83;nan;-23866.75;5013169;28;20277;-69
2023/01/02 01:26:25;;;;;;;19.53;8.87;;;;;;;2.02;nan;-23872.31;5013155;28;20188;-69
2023/01/02 01:28:52;;;;;;;18.97;8.57;;;;;;;2.10;nan;-23874.59;5013511;28;20310;-69
2023/01/02 01:31:17;;;;;;;18.70;7.90;;;;;;;2.07;nan;-23873.59;5013311;28;20635;-69
2023/01/02 01:33:43;;;;;;;14.77;8.60;;;;;;;1.87;nan;-23868.03;5013325;28;20285;-68
2023/01/02 01:36:14;;;;;;;18.00;8.77;;;;;;;1.85;nan;-23867.47;5013329;28;20628;-69
2023/01/02 01:38:40;;;;;;;15.47;8.73;;;;;;;1.61;nan;-23860.75;5013548;28;20540;-69
2023/01/02 01:41:06;;;;;;;15.97;7.87;;;;;;;1.62;nan;-23860.88;5012884;28;20176;-68
2023/01/02 01:43:40;;;;;;;16.27;7.97;;;;;;;2.10;nan;-23874.47;5012880;28;20620;-69
2023/01/02 01:46:38;;;;;;;13.33;8.53;;;;;;;2.05;nan;-23873.03;5012949;28;20175;-69
2023/01/02 01:49:19;;;;;;;17.23;8.13;;;;;;;1.65;nan;-23861.88;5014946;28;20665;-69
2023/01/02 01:52:08;;;;;;;18.93;8.10;;;;;;;1.96;nan;-23870.47;5013450;28;20176;-68
2023/01/02 01:54:44;;;;;;;10.73;7.13;;;;;;;2.11;nan;-23874.75;5012451;28;20214;-69
2023/01/02 01:57:29;;;;;;;12.53;7.13;;;;;;;1.80;nan;-23866.03;5012957;28;20156;-69
2023/01/02 01:59:56;;;;;;;16.37;8.10;;;;;;;2.02;nan;-23872.31;5012743;28;20171;-68
2023/01/02 02:02:23;;;;;;;18.77;7.63;;;;;;;2.26;nan;-23879.03;5012863;28;20179;-68
2023/01/02 02:04:49;;;;;;;16.53;7.90;;;;;;;2.39;nan;-23882.75;4973510;28;1154419;-69
2023/01/02 02:07:15;;;;;;;12.67;7.40;;;;;;;2.32;nan;-23880.75;5013740;28;20606;-69
2023/01/02 02:09:49;;;;;;;8.43;6.57;;;;;;;2.37;nan;-23882.16;5014295;28;20176;-69
2023/01/02 02:12:16;;;;;;;11.63;8.23;;;;;;;2.08;nan;-23873.88;5013826;28;20254;-69
2023/01/02 02:14:41;;;;;;;10.70;7.13;;;;;;;2.33;nan;-23880.88;5013507;28;20246;-68
2023/01/02 02:17:16;;;;;;;15.30;7.07;;;;;;;2.39;nan;-23882.59;5013839;28;20176;-69
2023/01/02 02:20:08;;;;;;;13.60;8.03;;;;;;;2.44;nan;-23884.16;5013293;28;20171;-69
2023/01/02 02:23:04;;;;;;;14.13;7.90;;;;;;;2.39;nan;-23882.75;5015550;28;20523;-69
2023/01/02 02:26:04;;;;;;;21.13;7.20;;;;;;;2.38;nan;-23882.31;5005290;28;20184;-68
2023/01/02 02:29:08;;;;;;;15.87;7.17;;;;;;;2.42;nan;-23883.44;4999725;28;20276;-68
2023/01/02 02:31:52;;;;;;;10.27;6.50;;;;;;;2.16;nan;-23876.16;5019182;28;20298;-69
2023/01/02 02:34:26;;;;;;;11.97;6.20;;;;;;;2.25;nan;-23878.59;5012632;28;20250;-68
2023/01/02 02:37:15;;;;;;;13.43;7.27;;;;;;;1.65;nan;-23861.88;5013304;28;20631;-68
2023/01/02 02:39:58;;;;;;;10.10;5.83;;;;;;;2.01;nan;-23871.88;5013432;28;20179;-68
2023/01/02 02:42:30;;;;;;;14.10;7.17;;;;;;;1.99;nan;-23871.47;5013530;28;20176;-69
2023/01/02 02:45:27;;;;;;;9.47;5.10;;;;;;;1.88;nan;-23868.31;5013380;28;20179;-68
2023/01/02 02:48:22;;;;;;;16.13;6.37;;;;;;;1.88;nan;-23868.31;5012143;28;20198;-69
2023/01/02 02:51:15;;;;;;;13.57;6.37;;;;;;;1.81;nan;-23866.31;5012329;28;20270;-68
2023/01/02 02:53:53;;;;;;;10.70;6.37;;;;;;;1.48;nan;-23857.03;5013161;28;20219;-69
2023/01/02 02:56:22;;;;;;;14.80;7.43;;;;;;;1.28;nan;-23851.31;5015998;28;20215;-69
2023/01/02 02:58:47;;;;;;;18.83;7.33;;;;;;;1.80;nan;-23866.03;5014682;28;20194;-69
2023/01/02 03:01:17;;;;;;;14.57;7.63;;;;;;;1.27;nan;-23851.03;5013017;28;20187;-68
2023/01/02 03:03:43;;;;;;;17.27;7.33;;;;;;;1.58;nan;-23859.75;5012717;28;20224;-68
2023/01/02 03:06:11;;;;;;;10.53;5.73;;;;;;;1.70;nan;-23863.16;5012858;28;20188;-68
2023/01/02 03:08:48;;;;;;;19.90;7.40;;;;;;;1.62;nan;-23861.03;5012785;28;20179;-69
2023/01/02 03:11:14;;;;;;;13.27;6.37;;;;;;;1.24;nan;-23850.16;5012709;28;20656;-69
2023/01/02 03:13:54;;;;;;;16.40;7.63;;;;;;;1.27;nan;-23851.16;5012684;28;20191;-69
2023/01/02 03:16:29;;;;;;;14.03;6.17;;;;;;;1.35;nan;-23853.31;5013338;28;20168;-68
2023/01/02 03:19:06;;;;;;;15.70;7.37;;;;;;;1.27;nan;-23851.03;5012611;28;20167;-69
2023/01/02 03:21:56;;;;;;;10.93;6.90;;;;;;;1.67;nan;-23862.47;5012703;28;20203;-68
2023/01/02 03:24:24;;;;;;;15.97;7.47;;;;;;;1.30;nan;-23851.88;5012779;28;20266;-70
2023/01/02 03:26:56;;;;;;;15.60;5.80;;;;;;;1.62;nan;-23861.03;5012070;28;20187;-69
2023/01/02 03:29:29;;;;;;;20.17;6.70;;;;;;;1.69;nan;-23863.03;5017415;28;20287;-69
2023/01/02 03:31:56;;;;;;;11.17;5.27;;;;;;;1.66;nan;-23862.03;4995497;28;20187;-69
2023/01/02 03:34:29;;;;;;;13.70;7.53;;;;;;;1.60;nan;-23860.47;5012181;28;20214;-68
2023/01/02 03:37:02;;;;;;;13.40;6.63;;;;;;;1.34;nan;-23853.16;5012108;28;20630;-69
2023/01/02 03:39:32;;;;;;;12.80;7.30;;;;;;;1.44;nan;-23855.88;5012218;28;20640;-68
2023/01/02 03:42:12;;;;;;;13.93;7.33;;;;;;;1.54;nan;-23858.75;5011919;28;20243;-69
2023/01/02 03:44:56;;;;;;;14.23;7.23;;;;;;;1.50;nan;-23857.59;5011924;28;20524;-68
2023/01/02 03:47:34;;;;;;;16.53;7.53;;;;;;;1.45;nan;-23856.16;5012098;28;20172;-68
2023/01/02 03:50:05;;;;;;;16.77;7.17;;;;;;;1.07;nan;-23845.31;5012132;28;20175;-69
2023/01/02 03:52:30;;;;;;;14.70;7.93;;;;;;;1.24;nan;-23850.31;5012308;28;20257;-69
2023/01/02 03:54:58;;;;;;;24.63;9.63;;;;;;;0.83;nan;-23838.72;5012167;28;20297;-69
2023/01/02 03:57:30;;;;;;;16.50;8.50;;;;;;;1.43;nan;-23855.59;5011929;28;20168;-68
2023/01/02 04:00:13;;;;;;;16.70;7.80;;;;;;;0.92;nan;-23841.00;5011975;28;20190;-69
2023/01/02 04:02:52;;;;;;;14.37;7.70;;;;;;;1.10;nan;-23846.16;5013758;28;20580;-68
2023/01/02 04:05:46;;;;;;;22.50;7.97;;;;;;;1.37;nan;-23853.88;5012529;28;20254;-69
2023/01/02 04:08:33;;;;;;;20.40;8.20;;;;;;;1.51;nan;-23857.88;4992433;28;20160;-68
2023/01/02 04:11:01;;;;;;;15.47;7.57;;;;;;;1.24;nan;-23850.16;5003427;28;20237;-69
2023/01/02 04:13:43;;;;;;;19.93;8.67;;;;;;;1.18;nan;-23848.59;5012041;28;20564;-68
2023/01/02 04:16:13;;;;;;;16.63;8.87;;;;;;;1.08;nan;-23845.59;5012107;28;20545;-69
2023/01/02 04:18:43;;;;;;;22.20;8.43;;;;;;;0.72;nan;-23835.56;5012033;28;20164;-68
2023/01/02 04:21:17;;;;;;;9.70;5.80;;;;;;;0.89;nan;-23840.44;5011829;28;20183;-69
2023/01/02 04:24:08;;;;;;;12.90;8.33;;;;;;;1.15;nan;-23847.59;5011737;28;20203;-68
2023/01/02 04:26:43;;;;;;;16.67;8.07;;;;;;;1.01;nan;-23843.72;5010919;28;20196;-69
2023/01/02 04:29:09;;;;;;;22.57;9.30;;;;;;;0.58;nan;-23831.56;5011588;28;20175;-69
2023/01/02 04:31:49;;;;;;;16.43;8.13;;;;;;;0.55;nan;-23830.72;5011858;28;20250;-68
2023/01/02 04:34:17;;;;;;;13.33;6.53;;;;;;;0.89;nan;-23840.28;5011390;28;20257;-68
2023/01/02 04:36:43;;;;;;;15.80;7.33;;;;;;;0.53;nan;-23830.13;5016834;28;20212;-69
2023/01/02 04:39:09;;;;;;;11.97;6.67;;;;;;;0.92;nan;-23841.00;5011330;28;20628;-69
2023/01/02 04:41:36;;;;;;;17.83;6.63;;;;;;;0.82;nan;-23838.44;5011500;28;20222;-68
2023/01/02 04:44:02;;;;;;;8.50;5.87;;;;;;;0.37;nan;-23825.69;5011990;28;20187;-69
2023/01/02 04:46:28;;;;;;;19.00;6.53;;;;;;;0.46;nan;-23828.00;5011436;28;20194;-69
2023/01/02 04:48:54;;;;;;;10.83;6.13;;;;;;;0.74;nan;-23836.16;5011454;28;20630;-68
2023/01/02 04:51:20;;;;;;;11.07;5.47;;;;;;;0.39;nan;-23826.28;5011469;28;20191;-69
2023/01/02 04:53:47;;;;;;;9.53;5.60;;;;;;;0.76;nan;-23836.72;5011473;28;20264;-69
2023/01/02 04:56:12;;;;;;;8.90;5.77;;;;;;;0.36;nan;-23825.41;5011472;28;20651;-68
2023/01/02 04:58:38;;;;;;;13.07;6.13;;;;;;;0.63;nan;-23833.00;5014533;28;20182;-68
2023/01/02 05:01:10;;;;;;;15.37;6.33;;;;;;;0.34;nan;-23824.84;5015038;28;20540;-68
2023/01/02 05:03:40;;;;;;;13.57;7.10;;;;;;;0.34;nan;-23824.84;5014732;28;20230;-69
2023/01/02 05:06:06;;;;;;;28.30;7.73;;;;;;;0.74;nan;-23836.16;5019466;28;20192;-68
2023/01/02 05:08:32;;;;;;;15.17;7.20;;;;;;;0.61;nan;-23832.44;5014983;28;20188;-69
2023/01/02 05:11:04;;;;;;;9.63;6.83;;;;;;;0.69;nan;-23834.72;5014609;28;20603;-69
2023/01/02 05:13:30;;;;;;;14.43;6.27;;;;;;;0.24;nan;-23821.84;5014491;28;20213;-69
2023/01/02 05:15:55;;;;;;;11.57;7.57;;;;;;;0.30;nan;-23823.69;5014490;28;20261;-69
2023/01/02 05:18:21;;;;;;;12.07;7.40;;;;;;;0.11;nan;-23818.13;5014701;28;20735;-69
2023/01/02 05:20:47;;;;;;;11.07;6.57;;;;;;;0.56;nan;-23830.84;5014796;28;20202;-68
2023/01/02 05:25:56;;;;;;;10.67;5.40;;;;;;;0.19;nan;-23820.41;5014862;28;20196;-69
2023/01/02 05:28:21;;;;;;;12.70;5.70;;;;;;;0.50;nan;-23829.28;5014451;28;20260;-69
2023/01/02 05:30:48;;;;;;;11.03;5.80;;;;;;;0.44;nan;-23827.56;5014398;28;20206;-68
2023/01/02 05:33:14;;;;;;;15.03;6.93;;;;;;;0.24;nan;-23821.84;5014609;28;20172;-68
2023/01/02 05:35:39;;;;;;;20.03;7.07;;;;;;;0.44;nan;-23827.56;5019522;28;20197;-69
2023/01/02 05:38:05;;;;;;;13.03;6.40;;;;;;;0.06;nan;-23816.69;5014325;28;20504;-69
2023/01/02 05:40:30;;;;;;;18.23;7.47;;;;;;;0.12;nan;-23818.41;5014002;28;20236;-69
2023/01/02 05:42:56;;;;;;;21.10;8.37;;;;;;;0.17;nan;-23819.84;5013842;28;20647;-69
2023/01/02 05:45:22;;;;;;;14.83;7.17;;;;;;;0.02;nan;-23815.53;5014470;28;20172;-68
2023/01/02 05:47:47;;;;;;;14.30;6.23;;;;;;;0.08;nan;-23817.41;5014017;28;20669;-69
2023/01/02 05:50:12;;;;;;;12.93;6.67;;;;;;;0.18;nan;-23820.13;5014155;28;20174;-69
2023/01/02 05:52:38;;;;;;;8.83;5.93;;;;;;;0.14;nan;-23819.13;5014154;28;20178;-69
2023/01/02 05:55:04;;;;;;;10.17;6.07;;;;;;;0.57;nan;-23831.13;5014236;28;20286;-68
2023/01/02 05:57:29;;;;;;;10.23;6.03;;;;;;;0.58;nan;-23831.56;5013861;28;20190;-68
2023/01/02 05:59:54;;;;;;;21.97;7.67;;;;;;;0.63;nan;-23833.00;5014364;28;20178;-69
2023/01/02 06:02:20;;;;;;;11.67;6.37;;;;;;;0.57;nan;-23831.28;5014054;28;20179;-69
2023/01/02 06:04:45;;;;;;;25.87;7.47;;;;;;;0.71;nan;-23835.28;5014797;28;20236;-69
2023/01/02 06:07:10;;;;;;;14.57;6.60;;;;;;;0.77;nan;-23837.00;5018074;28;20607;-68
2023/01/02 06:09:36;;;;;;;19.13;6.93;;;;;;;0.51;nan;-23829.56;5012413;28;20198;-69
2023/01/02 06:12:01;;;;;;;8.63;4.97;;;;;;;0.48;nan;-23828.56;5013251;28;20698;-69
2023/01/02 06:14:27;;;;;;;9.20;6.30;;;;;;;1.11;nan;-23846.44;5013634;28;20210;-69
2023/01/02 06:16:52;;;;;;;9.43;5.13;;;;;;;0.67;nan;-23834.16;5012242;28;20173;-68
2023/01/02 06:19:18;;;;;;;13.43;6.40;;;;;;;0.75;nan;-23836.28;5013868;28;20166;-68
2023/01/02 06:21:43;;;;;;;8.97;5.43;;;;;;;0.84;nan;-23839.00;5013597;28;20179;-68
2023/01/02 06:24:09;;;;;;;6.37;3.97;;;;;;;1.14;nan;-23847.31;5013686;28;20183;-68
2023/01/02 06:26:39;;;;;;;9.20;4.63;;;;;;;1.53;nan;-23858.44;5013729;28;20176;-69
2023/01/02 06:29:05;;;;;;;13.67;7.27;;;;;;;1.24;nan;-23850.16;5013284;28;20223;-71
2023/01/02 06:31:32;;;;;;;12.43;5.97;;;;;;;1.27;nan;-23851.03;5013459;28;20554;-69
2023/01/02 06:33:59;;;;;;;15.90;5.77;;;;;;;1.58;nan;-23859.75;5013031;28;20360;-68
2023/01/02 06:36:27;;;;;;;12.60;6.87;;;;;;;1.26;nan;-23850.88;5018098;28;20224;-69
2023/01/02 06:38:53;;;;;;;8.57;4.93;;;;;;;1.11;nan;-23846.44;5018106;28;20556;-68
2023/01/02 06:41:18;;;;;;;17.53;7.20;;;;;;;0.94;nan;-23841.72;5013351;28;20224;-69
2023/01/02 06:43:46;;;;;;;10.50;6.20;;;;;;;1.34;nan;-23853.03;5013281;28;20187;-70
2023/01/02 06:46:13;;;;;;;15.67;7.20;;;;;;;1.28;nan;-23851.44;5013036;28;20172;-69
2023/01/02 06:48:39;;;;;;;10.50;5.70;;;;;;;1.27;nan;-23851.16;5013086;28;20181;-70
2023/01/02 06:51:13;;;;;;;8.40;5.97;;;;;;;1.31;nan;-23852.16;5012970;28;20172;-70
2023/01/02 06:53:39;;;;;;;7.07;5.13;;;;;;;1.39;nan;-23854.31;5012720;28;20519;-71
2023/01/02 06:56:06;;;;;;;13.83;6.50;;;;;;;1.81;nan;-23866.16;5013210;28;20195;-71
2023/01/02 06:58:33;;;;;;;14.77;6.57;;;;;;;1.61;nan;-23860.59;5013053;28;20209;-71
2023/01/02 07:01:13;;;;;;;11.90;6.23;;;;;;;1.94;nan;-23869.88;5012973;28;20171;-71
2023/01/02 07:03:38;;;;;;;17.50;6.90;;;;;;;1.83;nan;-23866.75;5012826;28;20231;-69
2023/01/02 07:06:08;;;;;;;14.03;6.40;;;;;;;1.86;nan;-23867.75;5017676;28;20192;-70
2023/01/02 07:08:34;;;;;;;16.83;6.30;;;;;;;2.37;nan;-23882.03;5011166;28;20267;-69
2023/01/02 07:11:17;;;;;;;10.93;5.97;;;;;;;2.39;nan;-23882.59;5012063;28;20164;-70
2023/01/02 07:13:45;;;;;;;16.50;6.63;;;;;;;2.34;nan;-23881.16;5011712;28;20247;-69
2023/01/02 07:16:14;;;;;;;12.17;5.23;;;;;;;2.37;nan;-23882.16;5011625;28;20211;-70
2023/01/02 07:18:40;;;;;;;11.17;6.17;;;;;;;2.27;nan;-23879.31;5011810;28;20659;-68
2023/01/02 07:21:07;;;;;;;12.13;6.13;;;;;;;2.61;nan;-23889.03;5011422;28;20168;-69
2023/01/02 07:23:32;;;;;;;12.30;7.53;;;;;;;2.68;nan;-23891.00;5011564;28;20605;-70
2023/01/02 07:26:00;;;;;;;11.23;6.47;;;;;;;3.04;nan;-23901.00;5012179;28;20200;-69
2023/01/02 07:28:27;;;;;;;11.37;5.90;;;;;;;2.83;nan;-23895.16;5012135;28;20643;-68
2023/01/02 07:30:57;;;;;;;12.73;6.13;;;;;;;3.31;nan;-23908.72;5009916;28;20186;-70
2023/01/02 07:33:23;;;;;;;9.07;5.60;;;;;;;3.29;nan;-23908.13;5011806;28;20174;-70
2023/01/02 07:35:48;;;;;;;7.90;4.90;;;;;;;3.07;nan;-23901.84;5017064;28;20183;-70
2023/01/02 07:38:13;;;;;;;9.90;5.57;;;;;;;3.61;nan;-23916.97;5011836;28;20239;-68
2023/01/02 07:40:39;;;;;;;9.90;6.17;;;;;;;3.81;nan;-23922.81;5011457;28;20178;-70
2023/01/02 07:43:04;;;;;;;15.17;6.27;;;;;;;4.02;nan;-23928.66;5011127;28;20762;-69
2023/01/02 07:45:33;;;;;;;14.40;6.27;;;;;;;4.01;nan;-23928.38;5011784;28;20168;-70
2023/01/02 07:47:58;;;;;;;10.03;6.03;;;;;;;3.99;nan;-23927.94;5011571;28;20168;-69
2023/01/02 07:50:23;;;;;;;19.00;7.37;;;;;;;4.09;nan;-23930.66;5011600;28;20267;-69
2023/01/02 07:52:49;;;;;;;15.07;7.43;;;;;;;4.20;nan;-23933.78;5011308;28;20164;-68
2023/01/02 07:55:14;;;;;;;11.90;6.57;;;;;;;4.82;nan;-23951.16;5011452;28;20226;-69
2023/01/02 07:57:40;;;;;;;12.87;6.70;;;;;;;4.89;nan;-23953.13;5011598;28;20211;-68
2023/01/02 08:00:06;;;;;;;16.23;7.03;;;;;;;5.01;nan;-23956.41;5010961;28;20258;-69
2023/01/02 08:02:32;;;;;;;10.57;6.47;;;;;;;4.87;nan;-23952.72;5011235;28;20721;-69
2023/01/02 08:04:57;;;;;;;14.00;5.93;;;;;;;5.43;nan;-23968.34;5013444;28;20227;-69
2023/01/02 08:07:22;;;;;;;10.60;6.80;;;;;;;5.16;nan;-23960.81;4991860;28;20187;-71
2023/01/02 08:09:48;;;;;;;10.50;6.77;;;;;;;5.71;nan;-23976.16;5001504;28;20191;-68
2023/01/02 08:12:13;;;;;;;16.00;7.17;;;;;;;5.90;nan;-23981.44;5011529;28;20179;-69
2023/01/02 08:14:39;;;;;;;9.87;6.27;;;;;;;6.00;nan;-23984.28;5011488;28;20214;-68
2023/01/02 08:17:04;;;;;;;17.60;7.20;;;;;;;6.15;nan;-23988.53;5011221;28;20636;-69
2023/01/02 08:19:30;;;;;;;13.77;7.03;;;;;;;6.24;nan;-23990.94;5011610;28;20255;-70
2023/01/02 08:21:55;;;;;;;17.43;7.40;;;;;;;5.65;nan;-23974.47;5011281;28;20257;-69
2023/01/02 08:24:21;;;;;;;11.60;6.87;;;;;;;6.45;nan;-23997.06;5011089;28;20215;-71
2023/01/02 08:26:46;;;;;;;14.10;6.60;;;;;;;6.28;nan;-23992.22;5010860;28;20196;-66
2023/01/02 08:29:11;;;;;;;14.90;7.97;;;;;;;6.64;nan;-24002.44;5011135;28;20180;-66
2023/01/02 08:31:37;;;;;;;18.77;6.97;;;;;;;6.81;nan;-24007.13;5011249;28;20160;-65
2023/01/02 08:34:02;;;;;;;12.97;6.90;;;;;;;6.60;nan;-24001.31;5015278;28;20214;-69
2023/01/02 08:36:28;;;;;;;17.57;7.23;;;;;;;6.95;nan;-24011.09;5017489;28;20176;-66
2023/01/02 08:38:53;;;;;;;14.00;7.70;;;;;;;7.01;nan;-24012.66;5015627;28;20183;-66
2023/01/02 08:41:38;;;;;;;14.20;7.37;;;;;;;7.23;nan;-24018.91;5015057;28;20187;-61
2023/01/02 08:44:04;;;;;;;13.77;7.13;;;;;;;7.62;nan;-24029.69;5015540;28;20682;-72
2023/01/02 08:46:31;;;;;;;11.50;6.50;;;;;;;7.88;nan;-24037.19;4995926;28;20177;-66
2023/01/02 08:48:57;;;;;;;11.13;6.60;;;;;;;7.49;nan;-24026.28;4995355;28;20260;-67
2023/01/02 08:51:23;;;;;;;18.10;7.40;;;;;;;7.52;nan;-24026.97;4995104;28;20269;-66
2023/01/02 08:53:49;;;;;;;14.20;7.80;;;;;;;7.37;nan;-24022.72;4995317;28;20223;-66
2023/01/02 08:56:18;;;;;;;13.53;6.90;;;;;;;7.92;nan;-24038.19;4994893;28;20625;-66
2023/01/02 08:58:48;;;;;;;14.43;7.77;;;;;;;7.71;nan;-24032.38;4994945;28;20179;-66
2023/01/02 09:01:14;;;;;;;16.87;7.77;;;;;;;8.13;nan;-24044.00;4995036;28;20180;-66
2023/01/02 09:03:39;;;;;;;11.70;5.50;;;;;;;8.18;nan;-24045.53;4995250;28;20625;-66
2023/01/02 09:06:04;;;;;;;15.60;6.00;;;;;;;8.19;nan;-24045.69;5001422;28;20191;-66
2023/01/02 09:08:30;;;;;;;9.33;5.77;;;;;;;8.34;nan;-24050.06;5014670;28;20238;-66
2023/01/02 09:10:55;;;;;;;12.60;6.67;;;;;;;8.31;nan;-24049.09;5014665;28;20365;-67
2023/01/02 09:13:21;;;;;;;11.07;6.03;;;;;;;8.64;nan;-24058.44;5014104;28;20628;-65
2023/01/02 09:15:46;;;;;;;14.82;6.80;;;;;;;8.74;nan;-24061.13;5014305;28;20199;-65
2023/01/02 09:18:12;;;;;;;13.07;7.70;;;;;;;8.79;nan;-24062.53;5014501;28;20180;-66
2023/01/02 09:20:40;;;;;;;16.37;7.87;;;;;;;8.74;nan;-24061.13;5013915;28;20663;-65
2023/01/02 09:23:06;;;;;;;10.90;6.50;;;;;;;9.06;nan;-24070.16;5014291;28;20184;-66
2023/01/02 09:25:31;;;;;;;13.80;7.27;;;;;;;9.00;nan;-24068.47;5013913;28;20180;-66
2023/01/02 09:27:56;;;;;;;14.02;7.88;;;;;;;8.65;nan;-24058.72;5013752;28;20172;-65
2023/01/02 09:30:22;;;;;;;16.15;7.97;;;;;;;9.04;nan;-24069.59;5014531;28;20168;-65
2023/01/02 09:32:49;;;;;;;15.57;8.35;;;;;;;9.18;nan;-24073.41;5014210;28;20176;-66
2023/01/02 09:35:15;;;;;;;22.15;9.13;;;;;;;9.29;nan;-24076.53;5013899;28;20683;-66
2023/01/02 09:37:40;;;;;;;15.02;7.30;;;;;;;9.67;nan;-24087.28;5014206;28;20214;-66
2023/01/02 09:40:06;;;;;;;18.42;8.40;;;;;;;9.47;nan;-24081.47;5017261;28;20216;-69
2023/01/02 09:42:32;;;;;;;13.40;7.28;;;;;;;9.60;nan;-24085.16;5015772;28;20239;-66
2023/01/02 09:45:02;;;;;;;13.05;7.95;;;;;;;9.62;nan;-24085.84;5013803;28;20173;-65
2023/01/02 09:47:28;;;;;;;16.30;7.95;;;;;;;9.67;nan;-24087.28;5013910;28;20168;-65
2023/01/02 09:50:02;;;;;;;14.13;7.78;;;;;;;10.22;nan;-24102.53;5013608;28;20190;-66
2023/01/02 09:52:34;;;;;;;14.43;7.65;;;;;;;10.16;nan;-24100.97;5013865;28;20160;-66
2023/01/02 09:55:00;;;;;;;17.48;7.90;;;;;;;10.16;nan;-24100.97;5015222;28;20663;-66
2023/01/02 09:57:25;;;;;;;13.10;8.05;;;;;;;10.27;nan;-24103.94;5013632;28;20275;-64
2023/01/02 10:00:11;;;;;;;14.15;8.10;;;;;;;10.55;nan;-24111.84;5013520;28;20606;-64
2023/01/02 10:02:47;;;;;;;13.48;6.03;;;;;;;10.54;nan;-24111.56;5012920;28;20322;-64
2023/01/02 10:05:13;;;;;;;14.60;7.50;;;;;;;10.86;nan;-24120.31;5013562;28;20231;-65
2023/01/02 10:07:49;;;;;;;17.40;7.50;;;;;;;10.73;nan;-24116.63;5012291;28;20635;-65
2023/01/02 10:10:17;;;;;;;16.23;7.55;;;;;;;10.91;nan;-24121.84;5017959;28;20179;-65
2023/01/02 10:13:11;;;;;;;17.10;8.32;;;;;;;10.94;nan;-24122.56;5020118;28;20316;-65
2023/01/02 10:15:44;;;;;;;16.17;8.57;;;;;;;11.04;nan;-24125.38;5016490;28;20574;-66
2023/01/02 10:18:22;;;;;;;17.63;7.60;;;;;;;11.30;nan;-24132.56;5016459;28;20199;-66
2023/01/02 10:21:09;;;;;;;16.35;7.68;;;;;;;11.23;nan;-24130.75;4995970;28;20581;-68
2023/01/02 10:23:40;;;;;;;20.77;8.82;;;;;;;11.20;nan;-24129.88;5012589;28;20169;-69
2023/01/02 10:26:11;;;;;;;13.50;7.78;;;;;;;11.43;nan;-24136.22;5013211;28;20242;-69
2023/01/02 10:28:58;;;;;;;18.25;7.70;;;;;;;11.46;nan;-24137.09;5014642;28;20242;-68
2023/01/02 10:31:30;;;;;;;15.27;7.75;;;;;;;11.50;nan;-24138.34;5018816;28;20215;-67
2023/01/02 10:34:00;;;;;;;14.55;7.75;;;;;;;11.69;nan;-24143.41;5013140;28;20729;-69
2023/01/02 10:36:53;;;;;;;15.73;7.72;;;;;;;11.55;nan;-24139.47;5013405;28;20197;-70
2023/01/02 10:39:23;;;;;;;14.45;7.95;;;;;;;11.79;nan;-24146.25;5014834;28;20591;-68
2023/01/02 10:41:52;;;;;;;16.02;8.75;;;;;;;11.70;nan;-24143.69;5016987;28;20195;-70
2023/01/02 10:44:47;;;;;;;22.17;9.30;;;;;;;11.90;nan;-24149.47;5016706;28;20655;-70
2023/01/02 10:47:33;;;;;;;14.05;8.30;;;;;;;11.68;nan;-24143.13;5017272;28;20577;-70
2023/01/02 10:50:00;;;;;;;16.98;8.68;;;;;;;11.84;nan;-24147.66;5012519;28;20659;-70
2023/01/02 10:52:46;;;;;;;20.42;9.48;;;;;;;12.24;nan;-24158.78;5017036;28;20509;-70
2023/01/02 10:55:11;;;;;;;25.17;10.38;;;;;;;12.40;nan;-24163.28;5017717;28;20230;-70
2023/01/02 10:57:50;;;;;;;20.48;10.27;;;;;;;12.41;nan;-24163.56;5015479;28;20329;-70
2023/01/02 11:00:18;;;;;;;25.67;10.20;;;;;;;12.22;nan;-24158.22;5016219;28;20313;-70
2023/01/02 11:02:49;;;;;;;22.17;10.90;;;;;;;11.95;nan;-24150.75;5017718;28;20191;-70
2023/01/02 11:05:21;;;;;;;19.95;10.07;;;;;;;12.31;nan;-24160.88;5017426;28;20232;-70
2023/01/02 11:07:48;;;;;;;17.33;8.77;;;;;;;12.04;nan;-24153.28;5011880;28;20188;-70
2023/01/02 11:10:26;;;;;;;18.65;8.20;;;;;;;12.60;nan;-24168.75;5019374;28;20609;-70
2023/01/02 11:12:51;;;;;;;22.75;8.65;;;;;;;12.46;nan;-24164.97;5014165;28;20253;-69
2023/01/02 11:15:26;;;;;;;19.45;8.60;;;;;;;12.72;nan;-24172.13;5016531;28;20207;-69
2023/01/02 11:17:52;;;;;;;13.07;7.65;;;;;;;12.72;nan;-24172.13;5014878;28;20298;-70
2023/01/02 11:20:23;;;;;;;18.10;7.30;;;;;;;12.76;nan;-24173.25;5014756;28;20215;-70
2023/01/02 11:22:50;;;;;;;15.20;8.18;;;;;;;12.67;nan;-24170.88;5016759;28;20237;-69
2023/01/02 11:25:22;;;;;;;18.85;8.05;;;;;;;12.55;nan;-24167.50;5014357;28;20233;-70
2023/01/02 11:27:48;;;;;;;15.75;7.47;;;;;;;12.67;nan;-24170.72;5012329;28;20183;-69
2023/01/02 11:30:25;;;;;;;12.00;7.40;;;;;;;13.15;nan;-24184.22;5012531;28;20168;-69
2023/01/02 11:33:20;;;;;;;12.82;6.60;;;;;;;13.05;nan;-24181.41;5012823;28;20187;-70
2023/01/02 11:35:47;;;;;;;13.45;6.70;;;;;;;13.19;nan;-24185.34;5005550;28;20281;-69
2023/01/02 11:38:19;;;;;;;14.52;7.22;;;;;;;12.92;nan;-24177.75;5012285;28;20184;-69
2023/01/02 11:41:01;;;;;;;11.98;6.03;;;;;;;13.05;nan;-24181.41;5012290;28;20171;-70
2023/01/02 11:43:47;;;;;;;11.85;6.68;;;;;;;13.53;nan;-24194.75;5017038;28;20188;-69
2023/01/02 11:46:25;;;;;;;12.68;5.85;;;;;;;13.44;nan;-24192.09;5011898;28;20180;-69
2023/01/02 11:48:54;;;;;;;9.73;5.65;;;;;;;13.92;nan;-24205.56;5014049;28;20240;-70
2023/01/02 11:51:20;;;;;;;13.35;6.53;;;;;;;13.97;nan;-24206.97;5011734;28;20636;-70
2023/01/02 11:53:50;;;;;;;11.30;5.88;;;;;;;13.80;nan;-24202.06;5011642;28;20337;-70
2023/01/02 11:56:29;;;;;;;11.80;6.70;;;;;;;14.03;nan;-24208.53;5013594;28;20203;-69
2023/01/02 11:59:01;;;;;;;15.10;6.63;;;;;;;13.74;nan;-24200.53;5012129;28;20222;-69